Airfield :
LOGIN :

Register | Disclaimer

   EN    FR    IT 

 










Legend :    VFR   Marginal VFR   IFR   Intensive IFR   Very Intensive IFR
Visi :
Ceiling :
>= 8 km
>= 3000ft
5 to 8 km
1000 to 3000 ft
1500m to 5 km
500 to 1000 ft
800 to 1500m
200 to 500 ft
< 800m
< 200 ft
Symbols :   Thunderstorms  Fog  Heavy snow  Heavy precipitations  Wind > 20 kt
SIGMETs :     Misc.  Thunderstorms  Icing  Turbulence  Mountain Waves  Volcanic Ashes






- Airport Elevation : 299 ft
- IATA code : EDM


LFRI - La Roche Sur Yon - Les Ajoncs

CURRENT METAR :
  • 241000Z AUTO 13005KT 5000 -RA BR ///TCU 07/06 Q1021 TEMPO 2000 -DZRA OVC002

EXPIRED METARs :
  • 240930Z AUTO 12004KT 090V170 5000 -RA BR FEW011/// SCT022/// OVC058/// ///TCU 07/06 Q1020 TEMPO 2000 -DZRA OVC002
  • 240900Z AUTO 14006KT 100V160 4000 -RA BR BKN003/// OVC011/// ///CB 06/06 Q1020 TEMPO 2000 -DZRA OVC002
  • 240830Z AUTO 13006KT 2100 -DZ BR OVC002/// ///TCU 06/06 Q1020 TEMPO OVC002
  • 240800Z AUTO 13005KT 100V160 1900 -DZ BR OVC002/// ///TCU 06/05 Q1020 TEMPO OVC002
  • 240730Z AUTO 12005KT 3000 BR OVC002 06/05 Q1020 NOSIG

TAF AMD TAF LFRI
Valid from the 24 at 10:00 until the 25 at 06:00 UTC


241001Z 2410/2506 08005KT 4000 BR BKN006
TEMPO 2410/2412 2000 -DZRA OVC002
TEMPO 2410/2418 6000 NSW SCT008 BKN040
BECMG 2418/2421 2000 BR BKN002
TEMPO 2421/2506 0600 FG VV///



MET'MAP, your aeronautical weather chart ! - Copyright ORBIFLY December 2007 - Disclaimer

ORBIFLY MET'MAP TEAM :

Programming & Development : Alexandra Zaïnal
Concept & original design : Baudouin d'Aumeries
Assistance for programming : Marc-Olivier Méhu
Technical & hardware support : Manuel Goepfert

Contact : metmap@orbifly.com




SOURCES & CREDITS :

   NOAA